createdAt,value
2023-02-24T00:03:31.438Z,5.65
2023-02-24T00:09:07.980Z,5.62
2023-02-24T00:15:00.187Z,5.61
2023-02-24T00:20:43.424Z,5.63
2023-02-24T00:26:46.821Z,5.61
2023-02-24T00:32:44.217Z,5.58
2023-02-24T00:38:47.646Z,5.50
2023-02-24T00:44:51.109Z,5.44
2023-02-24T00:50:34.820Z,5.42
2023-02-24T00:56:41.170Z,5.34
2023-02-24T01:02:44.550Z,5.22
2023-02-24T01:08:42.104Z,5.10
2023-02-24T01:14:45.424Z,5.03
2023-02-24T01:20:49.018Z,4.84
2023-02-24T01:26:32.344Z,4.68
2023-02-24T01:32:29.245Z,4.50
2023-02-24T01:38:32.692Z,4.25
2023-02-24T01:44:36.136Z,4.02
2023-02-24T01:50:31.915Z,3.69
2023-02-24T01:56:35.624Z,3.45
2023-02-24T02:02:39.170Z,3.35
2023-02-24T02:08:42.747Z,3.22
2023-02-24T02:14:46.153Z,3.12
2023-02-24T02:20:48.098Z,3.11
2023-02-24T02:27:00.240Z,3.10
2023-02-24T02:33:02.392Z,3.03
2023-02-24T02:39:11.052Z,2.96
2023-02-24T02:45:26.420Z,2.95
2023-02-24T02:51:38.940Z,2.91
2023-02-24T02:57:06.640Z,2.77
2023-02-24T03:03:09.973Z,2.66
2023-02-24T03:09:13.798Z,2.58
2023-02-24T03:15:17.251Z,2.52
2023-02-24T03:21:21.032Z,2.50
2023-02-24T03:27:30.463Z,2.42
2023-02-24T03:33:33.961Z,2.41
2023-02-24T03:39:30.268Z,2.37
2023-02-24T03:45:33.743Z,2.33
2023-02-24T03:51:32.433Z,2.36
2023-02-24T03:57:38.632Z,2.41
2023-02-24T04:03:50.240Z,2.40
2023-02-24T04:10:18.295Z,2.40
2023-02-24T04:16:21.700Z,2.38
2023-02-24T04:22:25.171Z,2.38
2023-02-24T04:28:28.552Z,2.37
2023-02-24T04:34:14.674Z,2.35
2023-02-24T04:40:18.247Z,2.35
2023-02-24T04:46:23.372Z,2.30
2023-02-24T04:52:26.891Z,2.30
2023-02-24T04:58:09.027Z,2.31
2023-02-24T05:03:43.330Z,2.28
2023-02-24T05:09:35.478Z,2.28
2023-02-24T05:15:38.874Z,2.28
2023-02-24T05:21:57.224Z,2.29
2023-02-24T05:27:59.536Z,2.30
2023-02-24T05:34:02.971Z,2.30
2023-02-24T05:40:06.457Z,2.29
2023-02-24T05:46:09.894Z,2.22
2023-02-24T05:52:16.038Z,2.18
2023-02-24T05:58:19.544Z,2.14
2023-02-24T06:04:28.738Z,2.12
2023-02-24T06:10:32.426Z,2.13
2023-02-24T06:16:35.879Z,2.11
2023-02-24T06:22:42.111Z,2.10
2023-02-24T06:28:45.592Z,2.12
2023-02-24T06:34:49.099Z,2.13
2023-02-24T06:40:52.597Z,2.17
2023-02-24T06:46:56.009Z,2.20
2023-02-24T06:52:59.479Z,2.24
2023-02-24T06:59:02.890Z,2.30
2023-02-24T07:05:06.467Z,2.30
2023-02-24T07:10:55.387Z,2.36
2023-02-24T07:16:57.698Z,2.31
2023-02-24T07:23:01.109Z,2.25
2023-02-24T07:29:04.669Z,2.22
2023-02-24T07:35:08.120Z,2.25
2023-02-24T07:41:14.648Z,2.30
2023-02-24T07:47:18.297Z,2.38
2023-02-24T07:53:21.777Z,2.42
2023-02-24T07:59:25.164Z,2.42
2023-02-24T08:05:28.665Z,2.49
2023-02-24T08:11:32.127Z,2.52
2023-02-24T08:17:35.590Z,2.55
2023-02-24T08:23:39.143Z,2.57
2023-02-24T08:29:42.639Z,2.65
2023-02-24T08:35:46.170Z,2.74
2023-02-24T08:41:52.277Z,2.86
2023-02-24T08:47:55.707Z,3.00
2023-02-24T08:53:59.140Z,3.13
2023-02-24T09:00:02.782Z,3.29
2023-02-24T09:06:06.264Z,3.41
2023-02-24T09:12:02.991Z,3.54
2023-02-24T09:18:06.662Z,3.53
2023-02-24T09:24:10.204Z,3.49
2023-02-24T09:30:13.789Z,3.50
2023-02-24T09:36:23.848Z,3.55
2023-02-24T09:42:28.588Z,3.60
2023-02-24T09:48:35.153Z,3.70
2023-02-24T09:54:38.552Z,3.76
2023-02-24T10:00:45.133Z,3.83
2023-02-24T10:06:57.366Z,3.90
2023-02-24T10:13:09.998Z,3.85
2023-02-24T10:19:22.968Z,3.82
2023-02-24T10:25:32.593Z,3.88
2023-02-24T10:31:51.236Z,3.96
2023-02-24T10:37:54.723Z,4.00
2023-02-24T10:44:07.135Z,4.11
2023-02-24T10:50:18.167Z,4.00
2023-02-24T10:56:23.388Z,3.67
2023-02-24T11:02:27.008Z,3.50
2023-02-24T11:08:30.584Z,3.29
2023-02-24T11:14:32.636Z,3.00
2023-02-24T11:20:20.404Z,2.84
2023-02-24T11:26:23.087Z,2.77
2023-02-24T11:32:25.302Z,2.65
2023-02-24T11:37:55.994Z,2.58
2023-02-24T11:43:47.444Z,2.56
2023-02-24T11:49:42.958Z,2.44
2023-02-24T11:55:49.487Z,2.29
2023-02-24T12:01:55.768Z,2.22
2023-02-24T12:08:14.343Z,2.14
2023-02-24T12:14:21.377Z,2.05
2023-02-24T12:20:34.182Z,2.00
2023-02-24T12:26:14.146Z,1.91
2023-02-24T12:32:19.150Z,1.88
2023-02-24T12:38:34.733Z,1.90
2023-02-24T12:44:41.068Z,1.95
2023-02-24T12:50:55.619Z,1.93
2023-02-24T12:56:57.658Z,1.80
2023-02-24T13:02:47.030Z,1.73
2023-02-24T13:08:48.106Z,1.64
2023-02-24T13:14:58.884Z,1.64
2023-02-24T13:21:08.098Z,1.60
2023-02-24T13:27:11.563Z,1.58
2023-02-24T13:33:13.652Z,1.52
2023-02-24T13:39:23.393Z,1.45
2023-02-24T13:45:09.151Z,1.45
2023-02-24T13:51:11.460Z,1.42
2023-02-24T13:57:22.695Z,1.46
2023-02-24T14:02:54.676Z,1.46
2023-02-24T14:09:00.756Z,1.46
2023-02-24T14:15:04.497Z,1.47
2023-02-24T14:21:13.590Z,1.52
2023-02-24T14:26:51.376Z,1.56
2023-02-24T14:32:45.014Z,1.57
2023-02-24T14:38:47.715Z,1.56
2023-02-24T14:44:56.837Z,1.55
2023-02-24T14:50:56.496Z,1.53
2023-02-24T14:56:16.266Z,1.55
2023-02-24T15:02:19.721Z,1.55
2023-02-24T15:07:32.318Z,1.53
2023-02-24T15:13:07.314Z,1.50
2023-02-24T15:18:46.458Z,1.50
2023-02-24T15:24:24.276Z,1.49
2023-02-24T15:29:35.934Z,1.47
2023-02-24T15:34:48.923Z,1.48
2023-02-24T15:40:41.329Z,1.49
2023-02-24T15:46:46.869Z,1.48
2023-02-24T15:52:06.873Z,1.48
2023-02-24T15:57:16.936Z,1.48
2023-02-24T16:03:20.509Z,1.45
2023-02-24T16:09:22.621Z,1.43
2023-02-24T16:14:40.836Z,1.43
2023-02-24T16:20:09.132Z,1.42
2023-02-24T16:25:48.868Z,1.40
2023-02-24T16:31:16.774Z,1.38
2023-02-24T16:36:44.723Z,1.40
2023-02-24T16:42:16.384Z,1.41
2023-02-24T16:48:21.611Z,1.42
2023-02-24T16:54:02.480Z,1.44
2023-02-24T16:59:15.654Z,1.46
2023-02-24T17:04:57.697Z,1.49
2023-02-24T17:10:48.100Z,1.50
2023-02-24T17:16:51.987Z,1.53
2023-02-24T17:22:55.223Z,1.55
2023-02-24T17:28:58.788Z,1.56
2023-02-24T17:35:01.000Z,1.55
2023-02-24T17:41:03.793Z,1.57
2023-02-24T17:46:46.952Z,1.57
2023-02-24T17:52:50.482Z,1.59
2023-02-24T17:58:53.845Z,1.60
2023-02-24T18:04:57.394Z,1.63
2023-02-24T18:11:00.920Z,1.66
2023-02-24T18:17:04.421Z,1.69
2023-02-24T18:23:07.940Z,1.75
2023-02-24T18:29:11.667Z,1.79
2023-02-24T18:35:15.152Z,1.81
2023-02-24T18:41:18.818Z,1.85
2023-02-24T18:47:15.272Z,1.88
2023-02-24T18:53:18.789Z,1.91
2023-02-24T18:59:20.924Z,1.95
2023-02-24T19:05:27.433Z,1.98
2023-02-24T19:11:37.822Z,2.00
2023-02-24T19:17:41.215Z,2.02
2023-02-24T19:23:44.862Z,2.07
2023-02-24T19:29:47.980Z,2.09
2023-02-24T19:35:53.273Z,2.12
2023-02-24T19:41:51.873Z,2.15
2023-02-24T19:47:48.125Z,2.17
2023-02-24T19:53:51.578Z,2.18
2023-02-24T19:59:55.071Z,2.17
2023-02-24T20:05:58.686Z,2.18
2023-02-24T20:12:01.815Z,2.22
2023-02-24T20:18:05.983Z,2.22
2023-02-24T20:24:09.345Z,2.24
2023-02-24T20:30:12.766Z,2.27
2023-02-24T20:35:57.252Z,2.30
2023-02-24T20:42:00.698Z,2.32
2023-02-24T20:48:04.126Z,2.33
2023-02-24T20:54:07.831Z,2.34
2023-02-24T21:00:10.082Z,2.33
2023-02-24T21:06:12.427Z,2.35
2023-02-24T21:12:15.995Z,2.35
2023-02-24T21:18:12.498Z,2.35
2023-02-24T21:24:16.073Z,2.35
2023-02-24T21:29:59.453Z,2.37
2023-02-24T21:36:02.959Z,2.38
2023-02-24T21:42:06.399Z,2.41
2023-02-24T21:48:12.843Z,2.43
2023-02-24T21:54:10.242Z,2.45
2023-02-24T22:00:02.341Z,2.45
2023-02-24T22:06:05.824Z,2.46
2023-02-24T22:12:03.716Z,2.46
2023-02-24T22:18:07.227Z,2.49
2023-02-24T22:24:10.848Z,2.52
2023-02-24T22:30:14.378Z,2.53
2023-02-24T22:36:17.842Z,2.54
2023-02-24T22:42:21.314Z,2.53
2023-02-24T22:48:26.586Z,2.57
2023-02-24T22:54:30.621Z,2.57
2023-02-24T23:00:27.442Z,2.58
2023-02-24T23:06:42.894Z,2.60
2023-02-24T23:12:49.639Z,2.61
2023-02-24T23:18:45.961Z,2.62
2023-02-24T23:24:49.336Z,2.65
2023-02-24T23:30:52.830Z,2.66
2023-02-24T23:36:54.849Z,2.68
2023-02-24T23:42:58.679Z,2.65
2023-02-24T23:49:02.061Z,2.62
2023-02-24T23:55:05.720Z,2.60
